Terminal Aerodrome Forecast
Issued by NWS

Home | Current Version | Previous Version | Text Only | Print | Product List | Glossary On
Versions: 1 2 3 4 5 6 7 8 9 10 11 12 13 14 15 16 17 18 19 20 21 22 23 24 25 26 27 28 29 30 31
000
FTUS42 KMFL 220904 AAA
TAFFXE
TAF AMD
KFXE 220904Z 2209/2306 05009KT P6SM VCSH SCT025 SCT040
     FM221500 10012KT P6SM VCTS SCT030CB BKN050
     FM230000 11006KT P6SM FEW030 SCT050 BKN100=

USA.gov is the U.S. government's official web portal to all federal, state and local government web resources and services.